• Join FlightAware (Why Join?)
  • Login
  • US Flag 
03:50PM EDT


 

Airport Tracker/Info


-or-


 

Live Flight TrackerFlight Track Log ✈ N762NC ✈ 12-Aug-2013 ✈ KSDF - KATL

Flight Track Log - Related Links

Times and Time Zones

All times are in EDT time to prevent confusion due to time zone crossing. See the N762NC flight status page for this flight to view local times or setup timezone preferences in your user account.

Time Position Orientation Groundspeed Altitude Reporting Facility
EDT Latitude Longitude Course Direction KTS MPH feet Rate Location/Type
02:06PM 38.0500 -85.7000 191° South 235 270 4,400  Level Louisville TRACON
02:08PM 37.9584 -86.0998 238° Southwest  Level FlightAware Approximate
02:08PM 38.0286 -85.7950 254° West 228 262 6,900  Level Indianapolis Center
02:09PM 37.9068 -86.1942 233° Southwest  Level FlightAware Approximate
02:09PM 38.0222 -85.8889 265° West 257 296 8,900  Level Indianapolis Center
02:10PM 37.8321 -86.2436 189° South  Level FlightAware Approximate
02:10PM 38.0067 -85.9825 258° West 270 311 10,500  Level Indianapolis Center
02:11PM 37.7414 -86.2647 191° South  Level FlightAware Approximate
02:11PM 37.9750 -86.0897 249° West 317 365 11,700  Level Indianapolis Center
02:12PM 37.6509 -86.2873 191° South  Level FlightAware Approximate
02:12PM 37.9233 -86.1900 237° Southwest 336 387 13,500  Level Indianapolis Center
02:13PM 37.8481 -86.2689 220° Southwest 355 409 15,100 1,680 Climbing Indianapolis Center
02:14PM 37.7303 -86.2828 185° South 370 426 17,000 1,560 Climbing Indianapolis Center
02:15PM 37.6219 -86.3025 188° South 386 444 18,300 1,320 Climbing Indianapolis Center
02:16PM 37.5139 -86.3306 192° South 390 449 19,800 1,320 Climbing Indianapolis Center
02:17PM 37.4022 -86.3569 191° South 400 460 21,100 1,260 Climbing Indianapolis Center
02:18PM 37.2894 -86.3786 189° South 404 465 22,500 1,260 Climbing Indianapolis Center
02:19PM 37.1733 -86.3978 187° South 411 473 23,700 1,080 Climbing Indianapolis Center
02:20PM 37.0531 -86.3625 167° South 434 499 24,800 1,020 Climbing Indianapolis Center
02:21PM 36.9300 -86.3231 166° South 445 512 25,900 960 Climbing Indianapolis Center
02:22PM 36.8425 -86.2944 165° South 441 507 26,400 960 Climbing Memphis Center
02:23PM 36.7203 -86.2567 166° South 447 514 27,500 1,200 Climbing Memphis Center
02:24PM 36.6022 -86.2189 166° South 447 514 28,800 660 Climbing Memphis Center
02:25PM 36.4761 -86.1839 167° South 453 521 28,900 60 Climbing Memphis Center
02:26PM 36.3644 -86.1483 166° South 453 521 29,000  Climbing Memphis Center
02:27PM 36.2358 -86.1114 167° South 460 529 29,000  Level Memphis Center
02:28PM 36.1117 -86.0717 166° South 467 537 29,000  Level Memphis Center
02:29PM 35.9914 -86.0292 164° South 458 527 29,000  Level Memphis Center
02:30PM 35.8583 -85.9850 165° South 453 521 29,000  Level Memphis Center
02:32PM 35.6122 -85.9061 165° South 464 534 29,000  Level Atlanta Center
02:33PM 35.4897 -85.8728 168° South 464 534 29,000  Level Atlanta Center
02:34PM 35.3506 -85.8364 168° South 464 534 29,000 -60 Level Atlanta Center
02:35PM 35.2422 -85.8139 170° South 464 534 28,900 -120 Descending Atlanta Center
02:36PM 35.1197 -85.7858 169° South 464 534 28,800 -480 Descending Atlanta Center
02:37PM 35.0114 -85.7581 168° South 436 502 28,000 -1,200 Descending Atlanta Center
02:38PM 34.9119 -85.7231 164° South 397 457 26,500 -1,860 Descending Atlanta Center
02:39PM 34.8206 -85.6733 156° South 369 425 24,300 -1,920 Descending Atlanta Center
02:40PM 34.7294 -85.6208 155° Southeast 364 419 22,700 -1,680 Descending Atlanta Center
02:41PM 34.6358 -85.6039 172° South 353 406 21,000 -1,380 Descending Atlanta Center
02:42PM 34.5419 -85.5947 175° South 347 399 20,000 -480 Descending Atlanta Center
02:43PM 34.4583 -85.6133 190° South 327 376 20,100  Climbing Atlanta Center
02:44PM 34.4011 -85.5242 128° Southeast 291 335 20,000 -1,200 Descending Atlanta Center
02:45PM 34.3522 -85.4025 116° Southeast 321 369 17,800 -2,280 Descending Atlanta Center
02:46PM 34.3011 -85.3161 126° Southeast 328 377 15,500 -1,800 Descending Atlanta Center
02:47PM 34.2394 -85.2222 128° Southeast 350 403 14,200 -720 Descending Atlanta Center
02:48PM 34.1756 -85.1261 129° Southeast 356 410 14,100 -120 Descending Atlanta Center
02:49PM 34.1117 -85.0375 131° Southeast 361 415 14,000  Descending Atlanta Center
02:50PM 34.0539 -84.9414 126° Southeast 351 404 14,100 -420 Climbing Atlanta Center
02:51PM 34.0150 -84.8333 113° Southeast 344 396 13,200 -1,080 Descending Atlanta Center
02:52PM 33.9444 -84.7550 137° Southeast 344 396 12,000 -600 Descending Atlanta Center
02:53PM 33.8803 -84.6819 137° Southeast 326 375 12,100  Climbing Atlanta Center
02:54PM 33.8167 -84.6167 140° Southeast 275 316 12,000 -420 Descending Atlanta TRACON
02:55PM 33.7667 -84.5500 132° Southeast 274 315 11,400 -1,140 Descending Atlanta TRACON
02:56PM 33.7333 -84.4667 116° Southeast 296 341 9,800 -1,560 Descending Atlanta TRACON
02:57PM 33.7333 -84.3667 90° East 283 326 8,300 -1,440 Descending Atlanta TRACON
02:58PM 33.7333 -84.2667 90° East 270 311 6,900 -1,320 Descending Atlanta TRACON
02:59PM 33.7333 -84.1833 90° East 264 304 5,700 -1,020 Descending Atlanta TRACON
03:00PM 33.7333 -84.1000 90° East 253 291 5,000 -420 Descending Atlanta TRACON
03:01PM 33.6833 -84.0500 140° Southeast 235 270 4,900  Descending Atlanta TRACON
03:02PM 33.6500 -84.0833 220° Southwest 235 270 5,000  Climbing Atlanta TRACON
03:03PM 33.6500 -84.1500 270° West 203 234 4,900 -600 Descending Atlanta TRACON
03:04PM 33.6500 -84.2167 270° West 190 219 3,900 -960 Descending Atlanta TRACON
03:05PM 33.6500 -84.2833 270° West 191 220 3,000 -900 Descending Atlanta TRACON
03:06PM 33.6500 -84.3333 270° West 181 208 2,200 -900 Descending Atlanta TRACON
03:07PM 33.6500 -84.3833 270° West 145 167 1,300 -840 Descending Atlanta TRACON